createdAt,value
2019-02-24T00:01:12.526Z,-0.10
2019-02-24T00:03:42.515Z,-0.10
2019-02-24T00:06:13.347Z,-0.20
2019-02-24T00:08:42.924Z,-0.30
2019-02-24T00:11:13.747Z,-0.30
2019-02-24T00:13:43.398Z,-0.30
2019-02-24T00:16:13.983Z,-0.40
2019-02-24T00:18:45.087Z,-0.40
2019-02-24T00:21:16.030Z,-0.30
2019-02-24T00:23:45.510Z,-0.30
2019-02-24T00:26:16.659Z,-0.20
2019-02-24T00:28:46.482Z,-0.40
2019-02-24T00:31:17.364Z,-0.50
2019-02-24T00:33:46.846Z,-0.50
2019-02-24T00:36:17.765Z,-0.50
2019-02-24T00:38:47.331Z,-0.50
2019-02-24T00:41:18.646Z,-0.70
2019-02-24T00:43:48.065Z,-0.70
2019-02-24T00:46:17.519Z,-0.70
2019-02-24T00:48:47.002Z,-0.80
2019-02-24T00:51:17.818Z,-0.90
2019-02-24T00:53:47.303Z,-0.90
2019-02-24T00:56:18.118Z,-1.00
2019-02-24T00:58:47.603Z,-1.00
2019-02-24T01:01:18.318Z,-1.00
2019-02-24T01:03:47.909Z,-0.90
2019-02-24T01:06:17.422Z,-0.90
2019-02-24T01:08:47.079Z,-1.00
2019-02-24T01:11:17.801Z,-0.80
2019-02-24T01:13:47.692Z,-0.70
2019-02-24T01:16:18.423Z,-0.70
2019-02-24T01:18:47.906Z,-0.80
2019-02-24T01:21:17.531Z,-0.80
2019-02-24T01:23:47.039Z,-0.90
2019-02-24T01:26:16.456Z,-1.10
2019-02-24T01:28:45.974Z,-1.10
2019-02-24T01:31:16.652Z,-1.20
2019-02-24T01:33:46.174Z,-1.10
2019-02-24T01:36:17.064Z,-1.10
2019-02-24T01:38:46.582Z,-1.10
2019-02-24T01:41:16.000Z,-0.90
2019-02-24T01:43:45.591Z,-1.20
2019-02-24T01:46:16.279Z,-1.40
2019-02-24T01:48:45.894Z,-1.50
2019-02-24T01:51:16.775Z,-1.90
2019-02-24T01:53:46.299Z,-1.80
2019-02-24T01:56:17.387Z,-1.60
2019-02-24T01:58:46.833Z,-1.90
2019-02-24T02:01:16.251Z,-2.00
2019-02-24T02:03:46.168Z,-2.00
2019-02-24T02:06:15.646Z,-1.90
2019-02-24T02:08:45.965Z,-1.90
2019-02-24T02:11:15.442Z,-1.90
2019-02-24T02:13:45.054Z,-1.90
2019-02-24T02:16:14.946Z,-1.70
2019-02-24T02:18:44.954Z,-1.70
2019-02-24T02:21:15.834Z,-1.70
2019-02-24T02:23:45.546Z,-1.60
2019-02-24T02:26:16.340Z,-1.60
2019-02-24T02:28:45.871Z,-1.60
2019-02-24T02:31:15.351Z,-1.50
2019-02-24T02:33:45.185Z,-1.60
2019-02-24T02:36:14.722Z,-1.60
2019-02-24T02:38:44.841Z,-1.60
2019-02-24T02:41:14.317Z,-1.70
2019-02-24T02:43:44.343Z,-1.60
2019-02-24T02:46:15.027Z,-1.60
2019-02-24T02:48:44.736Z,-1.60
2019-02-24T02:51:15.537Z,-1.70
2019-02-24T02:53:45.054Z,-1.70
2019-02-24T02:56:15.846Z,-1.80
2019-02-24T02:58:53.960Z,-1.70
2019-02-24T03:01:16.413Z,-1.70
2019-02-24T03:03:46.734Z,-1.70
2019-02-24T03:06:19.171Z,-1.70
2019-02-24T03:08:52.686Z,-1.60
2019-02-24T03:11:23.589Z,-1.80
2019-02-24T03:13:53.105Z,-1.90
2019-02-24T03:16:24.329Z,-1.90
2019-02-24T03:18:53.951Z,-1.80
2019-02-24T03:21:24.641Z,-1.90
2019-02-24T03:23:54.151Z,-1.90
2019-02-24T03:26:24.871Z,-1.80
2019-02-24T03:29:03.576Z,-1.60
2019-02-24T03:31:25.508Z,-1.60
2019-02-24T03:33:54.991Z,-1.60
2019-02-24T03:36:25.816Z,-1.60
2019-02-24T03:38:55.295Z,-1.60
2019-02-24T03:41:26.007Z,-1.60
2019-02-24T03:43:55.491Z,-1.60
2019-02-24T03:46:26.702Z,-1.50
2019-02-24T03:48:56.112Z,-1.50
2019-02-24T03:51:25.567Z,-1.60
2019-02-24T03:53:55.043Z,-1.60
2019-02-24T03:56:25.971Z,-1.60
2019-02-24T03:58:55.422Z,-1.60
2019-02-24T04:01:24.859Z,-1.70
2019-02-24T04:03:54.339Z,-1.60
2019-02-24T04:06:25.058Z,-1.70
2019-02-24T04:08:54.492Z,-1.70
2019-02-24T04:11:23.994Z,-1.70
2019-02-24T04:13:53.398Z,-1.70
2019-02-24T04:16:22.920Z,-1.70
2019-02-24T04:18:52.405Z,-1.60
2019-02-24T04:21:23.128Z,-1.70
2019-02-24T04:23:52.536Z,-1.70
2019-02-24T04:26:23.254Z,-1.70
2019-02-24T04:28:52.687Z,-1.70
2019-02-24T04:31:22.115Z,-1.70
2019-02-24T04:33:51.599Z,-1.70
2019-02-24T04:36:22.306Z,-1.70
2019-02-24T04:38:51.728Z,-1.60
2019-02-24T04:41:22.431Z,-1.50
2019-02-24T04:43:51.911Z,-1.60
2019-02-24T04:46:21.354Z,-1.70
2019-02-24T04:48:50.764Z,-1.70
2019-02-24T04:51:20.290Z,-1.80
2019-02-24T04:53:49.777Z,-1.70
2019-02-24T04:56:20.487Z,-1.80
2019-02-24T04:58:49.940Z,-1.80
2019-02-24T05:01:19.352Z,-1.90
2019-02-24T05:03:48.876Z,-2.00
2019-02-24T05:06:19.561Z,-2.20
2019-02-24T05:08:49.076Z,-2.20
2019-02-24T05:11:19.750Z,-2.20
2019-02-24T05:13:49.196Z,-2.10
2019-02-24T05:16:19.875Z,-2.20
2019-02-24T05:18:49.391Z,-2.20
2019-02-24T05:21:18.802Z,-2.20
2019-02-24T05:23:48.316Z,-2.30
2019-02-24T05:26:17.791Z,-2.20
2019-02-24T05:28:47.299Z,-2.10
2019-02-24T05:31:16.779Z,-2.00
2019-02-24T05:33:46.288Z,-1.90
2019-02-24T05:36:16.966Z,-1.90
2019-02-24T05:38:46.410Z,-2.00
2019-02-24T05:41:15.891Z,-2.00
2019-02-24T05:43:45.335Z,-2.00
2019-02-24T05:46:16.014Z,-2.00
2019-02-24T05:48:45.516Z,-2.10
2019-02-24T05:51:16.209Z,-2.00
2019-02-24T05:53:45.702Z,-1.90
2019-02-24T05:56:16.372Z,-2.00
2019-02-24T05:58:45.879Z,-2.00
2019-02-24T06:01:15.352Z,-2.00
2019-02-24T06:03:44.862Z,-2.10
2019-02-24T06:06:14.345Z,-2.20
2019-02-24T06:08:43.793Z,-2.20
2019-02-24T06:11:14.571Z,-2.10
2019-02-24T06:13:44.005Z,-2.20
2019-02-24T06:16:14.687Z,-2.20
2019-02-24T06:18:44.126Z,-2.20
2019-02-24T06:21:14.805Z,-2.30
2019-02-24T06:23:44.243Z,-2.30
2019-02-24T06:26:13.645Z,-2.20
2019-02-24T06:28:43.155Z,-2.20
2019-02-24T06:31:12.557Z,-2.00
2019-02-24T06:33:41.998Z,-1.80
2019-02-24T06:36:12.671Z,-1.60
2019-02-24T06:38:42.178Z,-1.10
2019-02-24T06:41:12.867Z,-0.70
2019-02-24T06:43:42.302Z,-0.40
2019-02-24T06:46:11.713Z,-0.40
2019-02-24T06:48:41.127Z,-0.40
2019-02-24T06:51:12.216Z,-0.30
2019-02-24T06:53:41.692Z,0.00
2019-02-24T06:56:11.196Z,0.00
2019-02-24T06:58:40.667Z,0.10
2019-02-24T07:01:10.104Z,-0.10
2019-02-24T07:03:39.516Z,0.20
2019-02-24T07:06:10.334Z,0.50
2019-02-24T07:08:39.822Z,0.80
2019-02-24T07:11:09.254Z,1.10
2019-02-24T07:13:38.723Z,1.20
2019-02-24T07:16:09.526Z,1.40
2019-02-24T07:18:38.999Z,1.40
2019-02-24T07:21:08.443Z,1.70
2019-02-24T07:23:37.916Z,2.00
2019-02-24T07:26:08.819Z,2.50
2019-02-24T07:28:38.299Z,2.90
2019-02-24T07:31:09.010Z,3.30
2019-02-24T07:33:38.488Z,3.50
2019-02-24T07:36:09.212Z,3.80
2019-02-24T07:38:40.185Z,4.00
2019-02-24T07:41:09.698Z,4.30
2019-02-24T07:43:39.174Z,5.20
2019-02-24T07:46:09.881Z,6.10
2019-02-24T07:48:39.283Z,5.10
2019-02-24T07:51:08.783Z,4.80
2019-02-24T07:53:38.273Z,4.60
2019-02-24T07:56:07.856Z,6.00
2019-02-24T07:58:37.322Z,7.40
2019-02-24T08:01:08.226Z,7.20
2019-02-24T08:03:37.700Z,8.10
2019-02-24T08:06:07.206Z,8.40
2019-02-24T08:08:36.677Z,7.90
2019-02-24T08:11:06.253Z,8.60
2019-02-24T08:13:35.733Z,9.90
2019-02-24T08:16:06.540Z,9.80
2019-02-24T08:18:36.013Z,10.30
2019-02-24T08:21:05.842Z,10.40
2019-02-24T08:23:35.379Z,10.70
2019-02-24T08:26:04.899Z,10.80
2019-02-24T08:28:34.585Z,10.50
2019-02-24T08:31:04.062Z,11.50
2019-02-24T08:33:33.584Z,10.10
2019-02-24T08:36:03.191Z,10.50
2019-02-24T08:38:32.893Z,11.40
2019-02-24T08:41:03.677Z,12.20
2019-02-24T08:43:33.574Z,12.50
2019-02-24T08:46:04.464Z,12.30
2019-02-24T08:48:34.279Z,12.10
2019-02-24T08:51:03.755Z,12.70
2019-02-24T08:53:33.659Z,13.20
2019-02-24T08:56:03.135Z,13.40
2019-02-24T08:58:32.740Z,12.10
2019-02-24T09:01:02.210Z,13.10
2019-02-24T09:03:32.230Z,13.30
2019-02-24T09:06:03.002Z,13.80
2019-02-24T09:08:32.503Z,14.10
2019-02-24T09:11:03.373Z,14.40
2019-02-24T09:13:33.082Z,13.90
2019-02-24T09:16:03.763Z,12.90
2019-02-24T09:18:33.263Z,12.50
2019-02-24T09:21:03.944Z,12.00
2019-02-24T09:23:33.548Z,12.20
2019-02-24T09:26:03.016Z,12.10
2019-02-24T09:28:32.723Z,13.00
2019-02-24T09:31:02.204Z,13.70
2019-02-24T09:33:32.011Z,14.30
2019-02-24T09:36:02.894Z,14.60
2019-02-24T09:38:32.387Z,14.60
2019-02-24T09:41:01.791Z,14.60
2019-02-24T09:43:31.698Z,14.80
2019-02-24T09:46:01.109Z,13.70
2019-02-24T09:48:31.310Z,11.50
2019-02-24T09:51:02.078Z,10.60
2019-02-24T09:53:31.694Z,11.00
2019-02-24T09:56:01.166Z,10.80
2019-02-24T09:58:31.171Z,10.90
2019-02-24T10:01:10.155Z,10.60
2019-02-24T10:03:33.084Z,10.20
2019-02-24T10:06:03.794Z,10.50
2019-02-24T10:08:33.396Z,10.30
2019-02-24T10:11:02.877Z,10.20
2019-02-24T10:13:32.888Z,9.60
2019-02-24T10:16:02.357Z,9.10
2019-02-24T10:18:32.064Z,8.70
2019-02-24T10:21:02.771Z,8.70
2019-02-24T10:23:32.438Z,9.10
2019-02-24T10:26:02.152Z,9.00
2019-02-24T10:28:31.921Z,9.20
2019-02-24T10:31:02.650Z,9.60
2019-02-24T10:33:33.127Z,9.90
2019-02-24T10:36:04.054Z,9.70
2019-02-24T10:38:33.542Z,10.10
2019-02-24T10:41:03.251Z,10.00
2019-02-24T10:43:33.432Z,10.30
2019-02-24T10:46:04.244Z,10.00
2019-02-24T10:48:34.123Z,11.50
2019-02-24T10:51:04.827Z,13.90
2019-02-24T10:53:34.606Z,16.10
2019-02-24T10:56:04.118Z,17.50
2019-02-24T10:58:34.963Z,18.00
2019-02-24T11:01:04.943Z,19.20
2019-02-24T11:03:35.419Z,19.20
2019-02-24T11:06:05.132Z,18.80
2019-02-24T11:08:34.707Z,19.20
2019-02-24T11:11:05.678Z,17.60
2019-02-24T11:13:35.358Z,18.40
2019-02-24T11:16:06.082Z,19.10
2019-02-24T11:18:35.810Z,19.90
2019-02-24T11:21:05.330Z,20.20
2019-02-24T11:23:34.974Z,19.40
2019-02-24T11:26:05.695Z,18.00
2019-02-24T11:28:35.159Z,17.30
2019-02-24T11:31:05.860Z,15.30
2019-02-24T11:33:35.934Z,14.10
2019-02-24T11:36:06.859Z,13.00
2019-02-24T11:38:36.335Z,12.30
2019-02-24T11:41:07.161Z,11.60
2019-02-24T11:43:36.986Z,13.00
2019-02-24T11:46:06.595Z,15.30
2019-02-24T11:48:36.072Z,16.90
2019-02-24T11:51:06.887Z,18.00
2019-02-24T11:53:36.463Z,18.90
2019-02-24T11:56:06.078Z,18.90
2019-02-24T11:58:35.750Z,19.20
2019-02-24T12:01:05.301Z,19.80
2019-02-24T12:03:35.014Z,20.40
2019-02-24T12:06:04.497Z,18.70
2019-02-24T12:08:34.096Z,16.60
2019-02-24T12:11:04.875Z,15.10
2019-02-24T12:13:34.388Z,14.90
2019-02-24T12:16:03.862Z,14.20
2019-02-24T12:18:33.366Z,14.90
2019-02-24T12:21:02.844Z,15.90
2019-02-24T12:23:32.647Z,15.50
2019-02-24T12:26:03.439Z,15.70
2019-02-24T12:28:33.242Z,16.90
2019-02-24T12:31:02.726Z,17.60
2019-02-24T12:33:32.726Z,17.10
2019-02-24T12:36:02.218Z,16.50
2019-02-24T12:38:32.427Z,17.10
2019-02-24T12:41:01.899Z,15.40
2019-02-24T12:43:31.605Z,14.90
2019-02-24T12:46:01.007Z,15.10
2019-02-24T12:48:30.713Z,16.30
2019-02-24T12:51:00.181Z,16.30
2019-02-24T12:53:30.059Z,16.20
2019-02-24T12:56:00.840Z,16.80
2019-02-24T12:58:30.947Z,17.20
2019-02-24T13:01:01.931Z,17.10
2019-02-24T13:03:31.734Z,17.10
2019-02-24T13:06:02.808Z,17.40
2019-02-24T13:08:32.814Z,17.60
2019-02-24T13:11:02.287Z,17.70
2019-02-24T13:13:32.398Z,17.40
2019-02-24T13:16:02.169Z,16.70
2019-02-24T13:18:32.377Z,16.70
2019-02-24T13:21:03.548Z,16.10
2019-02-24T13:23:35.187Z,15.80
2019-02-24T13:26:04.543Z,14.40
2019-02-24T13:28:34.656Z,14.00
2019-02-24T13:31:05.394Z,13.60
2019-02-24T13:33:35.608Z,12.40
2019-02-24T13:36:05.175Z,11.70
2019-02-24T13:38:34.979Z,11.30
2019-02-24T13:41:04.750Z,11.20
2019-02-24T13:43:34.354Z,10.90
2019-02-24T13:46:04.035Z,10.80
2019-02-24T13:48:33.911Z,10.70
2019-02-24T13:51:04.832Z,10.80
2019-02-24T13:53:34.518Z,10.70
2019-02-24T13:56:05.226Z,10.60
2019-02-24T13:58:35.004Z,10.40
2019-02-24T14:01:04.619Z,10.50
2019-02-24T14:03:34.507Z,10.40
2019-02-24T14:06:04.022Z,10.40
2019-02-24T14:08:33.703Z,10.20
2019-02-24T14:11:04.716Z,10.10
2019-02-24T14:13:34.187Z,10.10
2019-02-24T14:16:03.888Z,10.00
2019-02-24T14:18:33.551Z,9.90
2019-02-24T14:21:04.252Z,9.80
2019-02-24T14:23:34.122Z,9.90
2019-02-24T14:26:03.723Z,9.70
2019-02-24T14:28:33.286Z,9.70
2019-02-24T14:31:04.365Z,9.50
2019-02-24T14:33:34.123Z,9.40
2019-02-24T14:36:04.024Z,9.50
2019-02-24T14:38:34.167Z,9.20
2019-02-24T14:41:04.247Z,9.20
2019-02-24T14:43:34.526Z,9.20
2019-02-24T14:46:04.126Z,9.20
2019-02-24T14:48:34.211Z,9.10
2019-02-24T14:51:03.719Z,9.10
2019-02-24T14:53:33.408Z,9.20
2019-02-24T14:56:04.513Z,9.20
2019-02-24T14:58:34.553Z,9.10
2019-02-24T15:01:05.364Z,9.10
2019-02-24T15:03:35.442Z,8.90
2019-02-24T15:06:06.172Z,8.90
2019-02-24T15:08:35.936Z,8.80
2019-02-24T15:11:06.734Z,8.80
2019-02-24T15:13:36.312Z,8.90
2019-02-24T15:16:07.014Z,9.00
2019-02-24T15:18:36.792Z,9.00
2019-02-24T15:21:06.295Z,9.00
2019-02-24T15:23:36.303Z,9.10
2019-02-24T15:26:05.747Z,9.10
2019-02-24T15:28:35.225Z,8.90
2019-02-24T15:31:08.918Z,9.00
2019-02-24T15:33:41.947Z,9.00
2019-02-24T15:36:12.740Z,8.90
2019-02-24T15:38:42.247Z,8.90
2019-02-24T15:41:13.059Z,8.90
2019-02-24T15:43:43.133Z,8.80
2019-02-24T15:46:12.731Z,8.80
2019-02-24T15:48:42.514Z,8.80
2019-02-24T15:51:13.559Z,8.80
2019-02-24T15:53:43.037Z,8.80
2019-02-24T15:56:12.440Z,8.80
2019-02-24T15:58:42.048Z,8.80
2019-02-24T16:01:12.823Z,8.70
2019-02-24T16:03:43.138Z,8.80
2019-02-24T16:06:12.623Z,8.70
2019-02-24T16:08:42.218Z,8.70
2019-02-24T16:11:12.990Z,8.50
2019-02-24T16:13:42.795Z,8.60
2019-02-24T16:16:13.571Z,8.60
2019-02-24T16:18:43.212Z,8.50
2019-02-24T16:21:13.006Z,8.40
2019-02-24T16:23:42.819Z,8.30
2019-02-24T16:26:12.588Z,8.20
2019-02-24T16:28:42.493Z,8.10
2019-02-24T16:31:12.770Z,7.90
2019-02-24T16:33:42.474Z,7.70
2019-02-24T16:36:13.350Z,7.60
2019-02-24T16:38:43.157Z,7.40
2019-02-24T16:41:13.951Z,7.20
2019-02-24T16:43:43.773Z,6.90
2019-02-24T16:46:14.656Z,6.70
2019-02-24T16:48:44.398Z,6.60
2019-02-24T16:51:13.965Z,6.40
2019-02-24T16:53:43.479Z,6.30
2019-02-24T16:56:12.955Z,6.40
2019-02-24T16:58:43.102Z,6.40
2019-02-24T17:01:13.779Z,6.30
2019-02-24T17:03:43.893Z,6.30
2019-02-24T17:06:14.748Z,6.00
2019-02-24T17:08:52.261Z,5.90
2019-02-24T17:11:15.652Z,5.70
2019-02-24T17:13:45.503Z,5.60
2019-02-24T17:16:16.472Z,5.50
2019-02-24T17:18:46.095Z,5.40
2019-02-24T17:21:15.566Z,5.20
2019-02-24T17:23:49.970Z,5.20
2019-02-24T17:26:16.495Z,5.10
2019-02-24T17:28:46.169Z,4.90
2019-02-24T17:31:17.747Z,4.90
2019-02-24T17:33:48.216Z,4.60
2019-02-24T17:36:19.215Z,4.70
2019-02-24T17:38:49.977Z,4.70
2019-02-24T17:41:21.170Z,4.80
2019-02-24T17:43:50.646Z,4.60
2019-02-24T17:46:21.550Z,4.60
2019-02-24T17:48:51.022Z,4.60
2019-02-24T17:51:21.576Z,4.50
2019-02-24T17:53:51.211Z,4.50
2019-02-24T17:56:22.131Z,4.60
2019-02-24T17:58:51.749Z,4.80
2019-02-24T18:01:21.303Z,4.70
2019-02-24T18:03:50.877Z,4.70
2019-02-24T18:06:20.383Z,4.60
2019-02-24T18:08:54.223Z,4.70
2019-02-24T18:11:21.186Z,4.50
2019-02-24T18:13:51.082Z,4.40
2019-02-24T18:16:21.895Z,4.30
2019-02-24T18:18:51.791Z,4.40
2019-02-24T18:21:22.495Z,4.50
2019-02-24T18:23:51.975Z,4.40
2019-02-24T18:26:22.963Z,4.30
2019-02-24T18:28:52.382Z,4.30
2019-02-24T18:31:23.303Z,4.20
2019-02-24T18:33:52.727Z,4.10
2019-02-24T18:36:22.184Z,4.10
2019-02-24T18:38:51.632Z,4.10
2019-02-24T18:41:22.444Z,3.90
2019-02-24T18:43:52.031Z,3.80
2019-02-24T18:46:21.546Z,3.70
2019-02-24T18:48:51.170Z,3.60
2019-02-24T18:51:21.878Z,3.50
2019-02-24T18:53:51.568Z,3.60
2019-02-24T18:56:21.106Z,3.50
2019-02-24T18:58:51.097Z,3.40
2019-02-24T19:01:22.040Z,3.50
2019-02-24T19:03:57.761Z,3.60
2019-02-24T19:06:22.796Z,3.50
2019-02-24T19:08:52.290Z,3.40
2019-02-24T19:11:23.192Z,3.40
2019-02-24T19:13:52.762Z,3.40
2019-02-24T19:16:23.599Z,3.50
2019-02-24T19:18:54.723Z,3.40
2019-02-24T19:21:25.459Z,3.40
2019-02-24T19:23:55.205Z,3.30
2019-02-24T19:26:25.950Z,3.30
2019-02-24T19:28:55.445Z,3.20
2019-02-24T19:31:24.968Z,3.10
2019-02-24T19:33:54.469Z,3.10
2019-02-24T19:36:25.303Z,3.00
2019-02-24T19:38:54.882Z,3.20
2019-02-24T19:41:25.893Z,3.10
2019-02-24T19:43:55.378Z,3.00
2019-02-24T19:46:26.406Z,2.90
2019-02-24T19:48:55.930Z,2.80
2019-02-24T19:51:25.520Z,2.80
2019-02-24T19:53:55.261Z,2.80
2019-02-24T19:56:24.756Z,2.70
2019-02-24T19:58:54.281Z,2.60
2019-02-24T20:01:25.288Z,2.60
2019-02-24T20:03:54.909Z,2.60
2019-02-24T20:06:25.791Z,2.60
2019-02-24T20:08:55.383Z,2.60
2019-02-24T20:11:26.280Z,2.60
2019-02-24T20:13:56.094Z,2.60
2019-02-24T20:16:26.898Z,2.50
2019-02-24T20:18:56.430Z,2.50
2019-02-24T20:21:26.117Z,2.50
2019-02-24T20:23:55.654Z,2.50
2019-02-24T20:26:25.143Z,2.40
2019-02-24T20:28:54.851Z,2.30
2019-02-24T20:31:25.638Z,2.30
2019-02-24T20:33:55.170Z,2.30
2019-02-24T20:36:24.656Z,2.20
2019-02-24T20:38:54.190Z,2.00
2019-02-24T20:41:25.187Z,2.00
2019-02-24T20:43:55.511Z,2.10
2019-02-24T20:46:26.708Z,2.20
2019-02-24T20:48:56.519Z,2.20
2019-02-24T20:51:27.401Z,2.20
2019-02-24T20:53:57.154Z,2.10
2019-02-24T20:56:27.246Z,2.10
2019-02-24T20:58:56.932Z,2.20
2019-02-24T21:01:27.615Z,2.20
2019-02-24T21:03:57.332Z,2.10
2019-02-24T21:06:28.003Z,2.10
2019-02-24T21:08:57.813Z,2.10
2019-02-24T21:11:27.405Z,2.10
2019-02-24T21:13:57.038Z,1.90
2019-02-24T21:16:27.019Z,1.90
2019-02-24T21:18:57.173Z,1.90
2019-02-24T21:21:27.222Z,1.90
2019-02-24T21:23:57.011Z,1.90
2019-02-24T21:26:26.487Z,1.90
2019-02-24T21:28:56.267Z,1.90
2019-02-24T21:31:27.488Z,2.00
2019-02-24T21:33:57.070Z,2.00
2019-02-24T21:36:26.601Z,2.00
2019-02-24T21:38:57.173Z,2.00
2019-02-24T21:41:29.749Z,1.90
2019-02-24T21:43:59.383Z,1.90
2019-02-24T21:46:28.895Z,1.80
2019-02-24T21:48:58.511Z,1.80
2019-02-24T21:51:28.324Z,1.70
2019-02-24T21:53:57.836Z,1.70
2019-02-24T21:56:27.343Z,1.70
2019-02-24T21:58:57.409Z,1.70
2019-02-24T22:01:28.191Z,1.70
2019-02-24T22:03:57.767Z,1.70
2019-02-24T22:06:28.586Z,1.60
2019-02-24T22:08:58.065Z,1.50
2019-02-24T22:11:29.079Z,1.30
2019-02-24T22:13:58.575Z,1.30
2019-02-24T22:16:28.075Z,1.20
2019-02-24T22:18:58.467Z,1.20
2019-02-24T22:21:30.540Z,1.10
2019-02-24T22:24:01.067Z,1.00
2019-02-24T22:26:33.212Z,1.00
2019-02-24T22:29:02.867Z,1.00
2019-02-24T22:31:32.683Z,0.90
2019-02-24T22:34:03.492Z,0.70
2019-02-24T22:36:34.316Z,0.80
2019-02-24T22:39:03.936Z,0.90
2019-02-24T22:41:34.917Z,0.90
2019-02-24T22:44:04.326Z,0.90
2019-02-24T22:46:33.940Z,1.10
2019-02-24T22:49:04.018Z,1.20
2019-02-24T22:51:33.550Z,1.20
2019-02-24T22:54:03.437Z,1.20
2019-02-24T22:56:32.942Z,1.10
2019-02-24T22:59:02.462Z,1.10
2019-02-24T23:01:33.593Z,1.10
2019-02-24T23:04:09.503Z,1.00
2019-02-24T23:06:41.093Z,1.00
2019-02-24T23:09:14.847Z,1.20
2019-02-24T23:11:45.486Z,1.10
2019-02-24T23:14:15.486Z,1.00
2019-02-24T23:16:46.434Z,1.00
2019-02-24T23:19:16.222Z,1.00
2019-02-24T23:21:45.762Z,1.30
2019-02-24T23:24:15.266Z,1.20
2019-02-24T23:26:44.938Z,1.00
2019-02-24T23:29:14.458Z,0.90
2019-02-24T23:31:44.036Z,0.50
2019-02-24T23:34:13.475Z,0.30
2019-02-24T23:36:44.567Z,0.30
2019-02-24T23:39:14.970Z,0.30
2019-02-24T23:41:45.991Z,0.20
2019-02-24T23:44:15.506Z,0.40
2019-02-24T23:46:46.454Z,0.40
2019-02-24T23:49:17.434Z,0.50
2019-02-24T23:51:46.905Z,0.30
2019-02-24T23:54:16.413Z,0.30
2019-02-24T23:56:45.822Z,0.30
2019-02-24T23:59:15.344Z,0.40
